PKWA TAF

81.7 °F / 27.6 °C
ENE at 20 MPH
83%
76.1°F / 24.5 °C
29.86" (1011 mb)
10 mile(s)
mostly cloudy
2020.04.01 2300 UTC

PKWA TAF

2020/04/01 18:59
TAF PKWA 011759Z 0118/0218 06014G22KT P6SM VCSH SCT018 BKN050 OVC100
TEMPO 0202/0206 5SM SHRA SCT014 BKN030